sensor_id;sensor_type;location;lat;lon;timestamp;temperature;humidity
530;DHT22;251;48.704;9.210;2023-01-15T00:01:28;9.80;41.60
530;DHT22;251;48.704;9.210;2023-01-15T00:03:56;9.50;41.60
530;DHT22;251;48.704;9.210;2023-01-15T00:06:24;9.80;41.50
530;DHT22;251;48.704;9.210;2023-01-15T00:08:51;9.80;41.70
530;DHT22;251;48.704;9.210;2023-01-15T00:11:20;9.90;42.00
530;DHT22;251;48.704;9.210;2023-01-15T00:13:47;9.80;41.90
530;DHT22;251;48.704;9.210;2023-01-15T00:16:15;9.80;42.00
530;DHT22;251;48.704;9.210;2023-01-15T00:18:42;9.80;42.70
530;DHT22;251;48.704;9.210;2023-01-15T00:21:10;9.60;42.40
530;DHT22;251;48.704;9.210;2023-01-15T00:23:38;9.90;42.70
530;DHT22;251;48.704;9.210;2023-01-15T00:26:27;9.90;43.30
530;DHT22;251;48.704;9.210;2023-01-15T00:29:13;9.60;43.20
530;DHT22;251;48.704;9.210;2023-01-15T00:31:41;9.50;43.10
530;DHT22;251;48.704;9.210;2023-01-15T00:34:08;9.90;43.50
530;DHT22;251;48.704;9.210;2023-01-15T00:36:36;9.90;43.60
530;DHT22;251;48.704;9.210;2023-01-15T00:39:05;9.70;43.70
530;DHT22;251;48.704;9.210;2023-01-15T00:41:33;9.70;44.40
530;DHT22;251;48.704;9.210;2023-01-15T00:44:01;9.90;43.60
530;DHT22;251;48.704;9.210;2023-01-15T00:46:28;9.90;43.30
530;DHT22;251;48.704;9.210;2023-01-15T00:48:54;9.70;43.00
530;DHT22;251;48.704;9.210;2023-01-15T00:51:21;9.80;42.40
530;DHT22;251;48.704;9.210;2023-01-15T00:53:48;9.90;42.40
530;DHT22;251;48.704;9.210;2023-01-15T00:56:15;9.80;43.00
530;DHT22;251;48.704;9.210;2023-01-15T00:58:43;10.00;40.80
530;DHT22;251;48.704;9.210;2023-01-15T01:01:12;9.90;41.30
530;DHT22;251;48.704;9.210;2023-01-15T01:03:39;9.80;41.40
530;DHT22;251;48.704;9.210;2023-01-15T01:06:07;9.80;41.30
530;DHT22;251;48.704;9.210;2023-01-15T01:08:35;9.90;40.20
530;DHT22;251;48.704;9.210;2023-01-15T01:11:03;10.00;39.90
530;DHT22;251;48.704;9.210;2023-01-15T01:13:31;9.90;40.70
530;DHT22;251;48.704;9.210;2023-01-15T01:15:59;9.80;40.60
530;DHT22;251;48.704;9.210;2023-01-15T01:18:27;9.90;40.60
530;DHT22;251;48.704;9.210;2023-01-15T01:20:54;9.90;40.60
530;DHT22;251;48.704;9.210;2023-01-15T01:23:22;10.00;39.10
530;DHT22;251;48.704;9.210;2023-01-15T01:25:49;10.10;39.10
530;DHT22;251;48.704;9.210;2023-01-15T01:28:16;9.90;40.10
530;DHT22;251;48.704;9.210;2023-01-15T01:30:43;10.20;38.90
530;DHT22;251;48.704;9.210;2023-01-15T01:33:11;9.90;40.10
530;DHT22;251;48.704;9.210;2023-01-15T01:35:38;10.20;39.50
530;DHT22;251;48.704;9.210;2023-01-15T01:38:05;10.20;39.20
530;DHT22;251;48.704;9.210;2023-01-15T01:40:31;10.10;39.10
530;DHT22;251;48.704;9.210;2023-01-15T01:42:58;10.30;39.90
530;DHT22;251;48.704;9.210;2023-01-15T01:45:27;10.20;40.10
530;DHT22;251;48.704;9.210;2023-01-15T01:47:57;10.30;40.50
530;DHT22;251;48.704;9.210;2023-01-15T01:50:27;10.30;40.50
530;DHT22;251;48.704;9.210;2023-01-15T01:52:59;10.20;39.80
530;DHT22;251;48.704;9.210;2023-01-15T01:55:27;10.30;39.60
530;DHT22;251;48.704;9.210;2023-01-15T01:57:58;10.10;39.60
530;DHT22;251;48.704;9.210;2023-01-15T02:00:27;10.30;39.80
530;DHT22;251;48.704;9.210;2023-01-15T02:02:54;10.10;39.50
530;DHT22;251;48.704;9.210;2023-01-15T02:05:27;10.10;39.20
530;DHT22;251;48.704;9.210;2023-01-15T02:07:55;10.20;39.20
530;DHT22;251;48.704;9.210;2023-01-15T02:10:22;10.20;39.30
530;DHT22;251;48.704;9.210;2023-01-15T02:12:55;10.20;39.00
530;DHT22;251;48.704;9.210;2023-01-15T02:15:33;10.20;39.00
530;DHT22;251;48.704;9.210;2023-01-15T02:18:07;10.40;39.40
530;DHT22;251;48.704;9.210;2023-01-15T02:20:39;10.20;39.50
530;DHT22;251;48.704;9.210;2023-01-15T02:23:22;10.20;39.00
530;DHT22;251;48.704;9.210;2023-01-15T02:26:07;10.40;39.10
530;DHT22;251;48.704;9.210;2023-01-15T02:28:43;10.30;39.10
530;DHT22;251;48.704;9.210;2023-01-15T02:31:14;10.20;39.40
530;DHT22;251;48.704;9.210;2023-01-15T02:33:44;10.20;39.10
530;DHT22;251;48.704;9.210;2023-01-15T02:36:15;10.30;38.90
530;DHT22;251;48.704;9.210;2023-01-15T02:38:50;10.10;39.10
530;DHT22;251;48.704;9.210;2023-01-15T02:41:22;10.10;39.00
530;DHT22;251;48.704;9.210;2023-01-15T02:43:53;10.30;39.20
530;DHT22;251;48.704;9.210;2023-01-15T02:46:26;10.20;39.00
530;DHT22;251;48.704;9.210;2023-01-15T02:48:56;10.10;39.00
530;DHT22;251;48.704;9.210;2023-01-15T02:51:35;10.10;38.90
530;DHT22;251;48.704;9.210;2023-01-15T02:54:05;10.50;39.20
530;DHT22;251;48.704;9.210;2023-01-15T02:56:35;10.20;39.10
530;DHT22;251;48.704;9.210;2023-01-15T02:59:06;10.30;39.40
530;DHT22;251;48.704;9.210;2023-01-15T03:01:42;10.40;39.50
530;DHT22;251;48.704;9.210;2023-01-15T03:04:16;10.30;39.20
530;DHT22;251;48.704;9.210;2023-01-15T03:06:47;10.30;39.30
530;DHT22;251;48.704;9.210;2023-01-15T03:09:16;10.10;39.60
530;DHT22;251;48.704;9.210;2023-01-15T03:11:47;10.40;39.90
530;DHT22;251;48.704;9.210;2023-01-15T03:14:20;10.10;39.90
530;DHT22;251;48.704;9.210;2023-01-15T03:16:56;10.20;40.10
530;DHT22;251;48.704;9.210;2023-01-15T03:19:26;10.30;40.50
530;DHT22;251;48.704;9.210;2023-01-15T03:22:01;10.10;40.50
530;DHT22;251;48.704;9.210;2023-01-15T03:24:32;10.40;40.80
530;DHT22;251;48.704;9.210;2023-01-15T03:27:03;10.30;40.90
530;DHT22;251;48.704;9.210;2023-01-15T03:29:33;10.10;41.10
530;DHT22;251;48.704;9.210;2023-01-15T03:32:02;10.10;41.10
530;DHT22;251;48.704;9.210;2023-01-15T03:34:34;10.10;41.10
530;DHT22;251;48.704;9.210;2023-01-15T03:37:03;10.20;41.80
530;DHT22;251;48.704;9.210;2023-01-15T03:39:32;10.40;41.70
530;DHT22;251;48.704;9.210;2023-01-15T03:42:19;10.30;41.80
530;DHT22;251;48.704;9.210;2023-01-15T03:44:53;10.20;41.90
530;DHT22;251;48.704;9.210;2023-01-15T03:47:30;10.20;42.40
530;DHT22;251;48.704;9.210;2023-01-15T03:50:03;10.30;42.80
530;DHT22;251;48.704;9.210;2023-01-15T03:52:44;10.30;43.10
530;DHT22;251;48.704;9.210;2023-01-15T03:55:15;10.10;43.30
530;DHT22;251;48.704;9.210;2023-01-15T03:57:57;10.20;43.60
530;DHT22;251;48.704;9.210;2023-01-15T04:00:31;10.30;44.30
530;DHT22;251;48.704;9.210;2023-01-15T04:03:01;10.30;44.30
530;DHT22;251;48.704;9.210;2023-01-15T04:05:31;10.30;44.70
530;DHT22;251;48.704;9.210;2023-01-15T04:08:00;10.30;44.60
530;DHT22;251;48.704;9.210;2023-01-15T04:10:29;10.30;44.80
530;DHT22;251;48.704;9.210;2023-01-15T04:12:57;10.00;43.40
530;DHT22;251;48.704;9.210;2023-01-15T04:15:24;10.30;44.60
530;DHT22;251;48.704;9.210;2023-01-15T04:17:52;10.30;44.70
530;DHT22;251;48.704;9.210;2023-01-15T04:20:21;10.20;44.90
530;DHT22;251;48.704;9.210;2023-01-15T04:22:48;10.00;44.80
530;DHT22;251;48.704;9.210;2023-01-15T04:25:14;10.10;44.80
530;DHT22;251;48.704;9.210;2023-01-15T04:27:41;10.00;44.70
530;DHT22;251;48.704;9.210;2023-01-15T04:30:09;10.20;44.90
530;DHT22;251;48.704;9.210;2023-01-15T04:32:36;10.10;44.80
530;DHT22;251;48.704;9.210;2023-01-15T04:35:05;10.20;44.70
530;DHT22;251;48.704;9.210;2023-01-15T04:37:32;10.40;45.20
530;DHT22;251;48.704;9.210;2023-01-15T04:39:59;10.20;44.70
530;DHT22;251;48.704;9.210;2023-01-15T04:42:25;10.30;44.90
530;DHT22;251;48.704;9.210;2023-01-15T04:45:10;10.30;45.10
530;DHT22;251;48.704;9.210;2023-01-15T04:47:36;10.10;44.70
530;DHT22;251;48.704;9.210;2023-01-15T04:50:05;10.40;45.10
530;DHT22;251;48.704;9.210;2023-01-15T04:52:33;10.30;44.60
530;DHT22;251;48.704;9.210;2023-01-15T04:54:59;10.30;45.00
530;DHT22;251;48.704;9.210;2023-01-15T04:57:26;10.60;45.40
530;DHT22;251;48.704;9.210;2023-01-15T04:59:53;10.50;45.20
530;DHT22;251;48.704;9.210;2023-01-15T05:02:20;10.50;45.60
530;DHT22;251;48.704;9.210;2023-01-15T05:04:47;10.40;45.20
530;DHT22;251;48.704;9.210;2023-01-15T05:07:16;10.50;45.40
530;DHT22;251;48.704;9.210;2023-01-15T05:09:43;10.40;45.30
530;DHT22;251;48.704;9.210;2023-01-15T05:12:09;10.60;45.50
530;DHT22;251;48.704;9.210;2023-01-15T05:14:36;10.70;45.50
530;DHT22;251;48.704;9.210;2023-01-15T05:17:03;10.60;45.50
530;DHT22;251;48.704;9.210;2023-01-15T05:19:30;10.40;45.10
530;DHT22;251;48.704;9.210;2023-01-15T05:21:56;10.60;45.10
530;DHT22;251;48.704;9.210;2023-01-15T05:24:24;10.40;44.90
530;DHT22;251;48.704;9.210;2023-01-15T05:26:51;10.50;44.90
530;DHT22;251;48.704;9.210;2023-01-15T05:29:19;10.50;44.70
530;DHT22;251;48.704;9.210;2023-01-15T05:31:46;10.50;44.80
530;DHT22;251;48.704;9.210;2023-01-15T05:34:13;10.60;44.50
530;DHT22;251;48.704;9.210;2023-01-15T05:36:40;10.80;44.80
530;DHT22;251;48.704;9.210;2023-01-15T05:39:07;10.50;44.10
530;DHT22;251;48.704;9.210;2023-01-15T05:41:36;10.50;44.10
530;DHT22;251;48.704;9.210;2023-01-15T05:44:16;10.50;43.40
530;DHT22;251;48.704;9.210;2023-01-15T05:46:44;10.80;42.40
530;DHT22;251;48.704;9.210;2023-01-15T05:49:13;10.20;41.50
530;DHT22;251;48.704;9.210;2023-01-15T05:51:40;9.90;44.10
530;DHT22;251;48.704;9.210;2023-01-15T05:54:10;9.80;46.80
530;DHT22;251;48.704;9.210;2023-01-15T05:56:39;9.60;49.40
530;DHT22;251;48.704;9.210;2023-01-15T05:59:06;9.20;49.40
530;DHT22;251;48.704;9.210;2023-01-15T06:01:33;8.90;51.60
530;DHT22;251;48.704;9.210;2023-01-15T06:04:02;8.80;54.20
530;DHT22;251;48.704;9.210;2023-01-15T06:06:29;8.40;55.50
530;DHT22;251;48.704;9.210;2023-01-15T06:08:56;8.40;56.40
530;DHT22;251;48.704;9.210;2023-01-15T06:11:24;8.10;58.10
530;DHT22;251;48.704;9.210;2023-01-15T06:13:52;7.90;59.10
530;DHT22;251;48.704;9.210;2023-01-15T06:16:19;8.00;60.20
530;DHT22;251;48.704;9.210;2023-01-15T06:18:46;8.00;62.70
530;DHT22;251;48.704;9.210;2023-01-15T06:21:13;7.90;65.50
530;DHT22;251;48.704;9.210;2023-01-15T06:23:41;7.60;65.90
530;DHT22;251;48.704;9.210;2023-01-15T06:26:10;7.50;66.20
530;DHT22;251;48.704;9.210;2023-01-15T06:28:38;7.60;68.20
530;DHT22;251;48.704;9.210;2023-01-15T06:31:07;7.50;69.30
530;DHT22;251;48.704;9.210;2023-01-15T06:33:34;7.40;68.00
530;DHT22;251;48.704;9.210;2023-01-15T06:36:04;7.40;69.30
530;DHT22;251;48.704;9.210;2023-01-15T06:38:32;7.40;71.10
530;DHT22;251;48.704;9.210;2023-01-15T06:41:00;7.30;71.50
530;DHT22;251;48.704;9.210;2023-01-15T06:43:26;7.50;72.20
530;DHT22;251;48.704;9.210;2023-01-15T06:46:12;7.50;70.90
530;DHT22;251;48.704;9.210;2023-01-15T06:48:57;7.20;70.30
530;DHT22;251;48.704;9.210;2023-01-15T06:51:24;7.30;70.50
530;DHT22;251;48.704;9.210;2023-01-15T06:53:51;7.30;70.80
530;DHT22;251;48.704;9.210;2023-01-15T06:56:17;7.30;74.10
530;DHT22;251;48.704;9.210;2023-01-15T06:58:44;7.00;73.20
530;DHT22;251;48.704;9.210;2023-01-15T07:01:14;7.00;74.50
530;DHT22;251;48.704;9.210;2023-01-15T07:03:41;7.10;73.80
530;DHT22;251;48.704;9.210;2023-01-15T07:06:10;7.20;74.30
530;DHT22;251;48.704;9.210;2023-01-15T07:08:37;7.10;75.60
530;DHT22;251;48.704;9.210;2023-01-15T07:11:05;7.00;78.20
530;DHT22;251;48.704;9.210;2023-01-15T07:13:33;7.10;78.70
530;DHT22;251;48.704;9.210;2023-01-15T07:16:00;7.10;79.10
530;DHT22;251;48.704;9.210;2023-01-15T07:18:30;7.10;78.90
530;DHT22;251;48.704;9.210;2023-01-15T07:20:58;7.10;78.00
530;DHT22;251;48.704;9.210;2023-01-15T07:23:26;7.00;76.40
530;DHT22;251;48.704;9.210;2023-01-15T07:25:54;6.90;75.40
530;DHT22;251;48.704;9.210;2023-01-15T07:28:22;7.10;77.30
530;DHT22;251;48.704;9.210;2023-01-15T07:30:48;6.70;74.40
530;DHT22;251;48.704;9.210;2023-01-15T07:33:15;6.90;71.10
530;DHT22;251;48.704;9.210;2023-01-15T07:35:43;6.90;72.20
530;DHT22;251;48.704;9.210;2023-01-15T07:38:10;6.80;71.80
530;DHT22;251;48.704;9.210;2023-01-15T07:40:37;6.80;71.70
530;DHT22;251;48.704;9.210;2023-01-15T07:43:04;6.60;70.10
530;DHT22;251;48.704;9.210;2023-01-15T07:45:44;6.60;68.20
530;DHT22;251;48.704;9.210;2023-01-15T07:48:29;6.50;69.20
530;DHT22;251;48.704;9.210;2023-01-15T07:51:15;6.40;71.00
530;DHT22;251;48.704;9.210;2023-01-15T07:53:41;6.40;69.80
530;DHT22;251;48.704;9.210;2023-01-15T07:56:09;6.30;69.70
530;DHT22;251;48.704;9.210;2023-01-15T07:58:36;6.00;67.90
530;DHT22;251;48.704;9.210;2023-01-15T08:01:02;6.50;69.50
530;DHT22;251;48.704;9.210;2023-01-15T08:03:29;6.20;70.20
530;DHT22;251;48.704;9.210;2023-01-15T08:05:56;6.10;69.70
530;DHT22;251;48.704;9.210;2023-01-15T08:08:24;6.50;74.10
530;DHT22;251;48.704;9.210;2023-01-15T08:10:51;6.50;75.00
530;DHT22;251;48.704;9.210;2023-01-15T08:13:35;6.10;71.80
530;DHT22;251;48.704;9.210;2023-01-15T08:16:19;6.50;71.30
530;DHT22;251;48.704;9.210;2023-01-15T08:18:46;5.90;73.10
530;DHT22;251;48.704;9.210;2023-01-15T08:21:14;6.40;74.10
530;DHT22;251;48.704;9.210;2023-01-15T08:23:42;6.50;76.80
530;DHT22;251;48.704;9.210;2023-01-15T08:26:11;6.50;76.00
530;DHT22;251;48.704;9.210;2023-01-15T08:28:38;6.10;71.50
530;DHT22;251;48.704;9.210;2023-01-15T08:31:05;6.40;71.90
530;DHT22;251;48.704;9.210;2023-01-15T08:33:33;6.40;70.20
530;DHT22;251;48.704;9.210;2023-01-15T08:36:00;6.20;71.20
530;DHT22;251;48.704;9.210;2023-01-15T08:38:26;6.40;71.60
530;DHT22;251;48.704;9.210;2023-01-15T08:40:55;6.30;70.10
530;DHT22;251;48.704;9.210;2023-01-15T08:43:26;6.00;70.20
530;DHT22;251;48.704;9.210;2023-01-15T08:45:55;6.40;71.70
530;DHT22;251;48.704;9.210;2023-01-15T08:48:23;6.40;72.00
530;DHT22;251;48.704;9.210;2023-01-15T08:50:50;6.40;70.80
530;DHT22;251;48.704;9.210;2023-01-15T08:53:17;5.90;70.30
530;DHT22;251;48.704;9.210;2023-01-15T08:55:44;6.20;69.10
530;DHT22;251;48.704;9.210;2023-01-15T08:58:12;5.90;69.20
530;DHT22;251;48.704;9.210;2023-01-15T09:00:40;6.10;67.10
530;DHT22;251;48.704;9.210;2023-01-15T09:03:06;6.10;68.10
530;DHT22;251;48.704;9.210;2023-01-15T09:05:33;6.10;68.30
530;DHT22;251;48.704;9.210;2023-01-15T09:08:02;6.00;68.60
530;DHT22;251;48.704;9.210;2023-01-15T09:10:29;6.20;66.80
530;DHT22;251;48.704;9.210;2023-01-15T09:12:57;6.00;65.20
530;DHT22;251;48.704;9.210;2023-01-15T09:15:26;6.20;67.80
530;DHT22;251;48.704;9.210;2023-01-15T09:17:53;6.00;70.50
530;DHT22;251;48.704;9.210;2023-01-15T09:20:20;6.20;74.20
530;DHT22;251;48.704;9.210;2023-01-15T09:22:47;6.20;74.60
530;DHT22;251;48.704;9.210;2023-01-15T09:25:14;6.20;75.10
530;DHT22;251;48.704;9.210;2023-01-15T09:27:43;6.00;73.60
530;DHT22;251;48.704;9.210;2023-01-15T09:30:16;5.90;69.70
530;DHT22;251;48.704;9.210;2023-01-15T09:32:45;6.20;68.40
530;DHT22;251;48.704;9.210;2023-01-15T09:35:12;6.10;67.90
530;DHT22;251;48.704;9.210;2023-01-15T09:37:38;6.20;68.70
530;DHT22;251;48.704;9.210;2023-01-15T09:40:07;6.00;69.10
530;DHT22;251;48.704;9.210;2023-01-15T09:42:43;6.20;72.10
530;DHT22;251;48.704;9.210;2023-01-15T09:45:19;5.90;72.70
530;DHT22;251;48.704;9.210;2023-01-15T09:48:00;6.10;72.60
530;DHT22;251;48.704;9.210;2023-01-15T09:50:37;6.00;73.90
530;DHT22;251;48.704;9.210;2023-01-15T09:53:18;5.90;70.00
530;DHT22;251;48.704;9.210;2023-01-15T09:55:49;5.90;68.40
530;DHT22;251;48.704;9.210;2023-01-15T09:58:17;6.00;65.80
530;DHT22;251;48.704;9.210;2023-01-15T10:00:47;6.10;65.80
530;DHT22;251;48.704;9.210;2023-01-15T10:03:24;6.10;65.30
530;DHT22;251;48.704;9.210;2023-01-15T10:06:00;6.20;65.70
530;DHT22;251;48.704;9.210;2023-01-15T10:08:33;6.20;65.80
530;DHT22;251;48.704;9.210;2023-01-15T10:11:04;6.00;63.40
530;DHT22;251;48.704;9.210;2023-01-15T10:13:37;6.20;62.70
530;DHT22;251;48.704;9.210;2023-01-15T10:16:05;5.70;61.80
530;DHT22;251;48.704;9.210;2023-01-15T10:18:34;6.20;61.40
530;DHT22;251;48.704;9.210;2023-01-15T10:21:09;5.80;60.20
530;DHT22;251;48.704;9.210;2023-01-15T10:23:45;5.60;61.00
530;DHT22;251;48.704;9.210;2023-01-15T10:26:27;5.90;61.30
530;DHT22;251;48.704;9.210;2023-01-15T10:29:01;5.70;60.50
530;DHT22;251;48.704;9.210;2023-01-15T10:31:46;5.70;61.80
530;DHT22;251;48.704;9.210;2023-01-15T10:37:14;5.80;63.60
530;DHT22;251;48.704;9.210;2023-01-15T10:39:49;5.90;64.00
530;DHT22;251;48.704;9.210;2023-01-15T10:42:30;5.90;66.00
530;DHT22;251;48.704;9.210;2023-01-15T10:45:02;5.60;65.50
530;DHT22;251;48.704;9.210;2023-01-15T10:47:33;5.70;67.70
530;DHT22;251;48.704;9.210;2023-01-15T10:50:14;5.60;66.30
530;DHT22;251;48.704;9.210;2023-01-15T10:52:44;5.60;67.70
530;DHT22;251;48.704;9.210;2023-01-15T10:55:18;6.10;67.00
530;DHT22;251;48.704;9.210;2023-01-15T10:57:51;5.60;65.20
530;DHT22;251;48.704;9.210;2023-01-15T11:00:20;5.70;64.90
530;DHT22;251;48.704;9.210;2023-01-15T11:02:53;6.10;63.00
530;DHT22;251;48.704;9.210;2023-01-15T11:05:26;5.60;62.80
530;DHT22;251;48.704;9.210;2023-01-15T11:07:54;5.60;64.40
530;DHT22;251;48.704;9.210;2023-01-15T11:10:21;5.80;63.60
530;DHT22;251;48.704;9.210;2023-01-15T11:12:51;5.60;61.80
530;DHT22;251;48.704;9.210;2023-01-15T11:15:37;5.70;62.30
530;DHT22;251;48.704;9.210;2023-01-15T11:18:25;5.60;61.10
530;DHT22;251;48.704;9.210;2023-01-15T11:21:15;5.40;56.50
530;DHT22;251;48.704;9.210;2023-01-15T11:23:43;5.30;55.30
530;DHT22;251;48.704;9.210;2023-01-15T11:26:16;5.00;56.60
530;DHT22;251;48.704;9.210;2023-01-15T11:28:45;5.00;57.60
530;DHT22;251;48.704;9.210;2023-01-15T11:31:12;5.00;57.70
530;DHT22;251;48.704;9.210;2023-01-15T11:33:43;5.00;59.50
530;DHT22;251;48.704;9.210;2023-01-15T11:36:21;5.00;60.60
530;DHT22;251;48.704;9.210;2023-01-15T11:38:49;4.70;57.60
530;DHT22;251;48.704;9.210;2023-01-15T11:41:20;4.70;50.90
530;DHT22;251;48.704;9.210;2023-01-15T11:43:54;4.50;51.80
530;DHT22;251;48.704;9.210;2023-01-15T11:46:39;4.50;53.30
530;DHT22;251;48.704;9.210;2023-01-15T11:49:23;4.50;55.00
530;DHT22;251;48.704;9.210;2023-01-15T11:52:11;4.40;56.60
530;DHT22;251;48.704;9.210;2023-01-15T11:54:43;4.30;56.50
530;DHT22;251;48.704;9.210;2023-01-15T11:57:11;4.30;55.30
530;DHT22;251;48.704;9.210;2023-01-15T11:59:48;4.40;57.60
530;DHT22;251;48.704;9.210;2023-01-15T12:02:23;4.50;57.00
530;DHT22;251;48.704;9.210;2023-01-15T12:04:55;4.20;58.00
530;DHT22;251;48.704;9.210;2023-01-15T12:07:25;4.10;57.40
530;DHT22;251;48.704;9.210;2023-01-15T12:10:06;4.20;57.90
530;DHT22;251;48.704;9.210;2023-01-15T12:12:49;4.30;59.30
530;DHT22;251;48.704;9.210;2023-01-15T12:15:36;4.60;58.90
530;DHT22;251;48.704;9.210;2023-01-15T12:18:24;4.40;59.00
530;DHT22;251;48.704;9.210;2023-01-15T12:21:02;4.20;58.20
530;DHT22;251;48.704;9.210;2023-01-15T12:26:38;4.10;55.90
530;DHT22;251;48.704;9.210;2023-01-15T12:29:11;4.20;53.10
530;DHT22;251;48.704;9.210;2023-01-15T12:31:44;4.20;54.10
530;DHT22;251;48.704;9.210;2023-01-15T12:34:18;4.10;53.90
530;DHT22;251;48.704;9.210;2023-01-15T12:36:50;4.40;55.00
530;DHT22;251;48.704;9.210;2023-01-15T12:39:21;4.10;53.30
530;DHT22;251;48.704;9.210;2023-01-15T12:41:53;4.20;53.70
530;DHT22;251;48.704;9.210;2023-01-15T12:44:44;4.40;53.80
530;DHT22;251;48.704;9.210;2023-01-15T12:47:34;4.10;53.80
530;DHT22;251;48.704;9.210;2023-01-15T12:50:10;4.50;54.20
530;DHT22;251;48.704;9.210;2023-01-15T12:52:42;4.30;53.30
530;DHT22;251;48.704;9.210;2023-01-15T12:55:15;4.50;54.40
530;DHT22;251;48.704;9.210;2023-01-15T12:57:47;4.40;53.50
530;DHT22;251;48.704;9.210;2023-01-15T13:00:19;4.40;54.60
530;DHT22;251;48.704;9.210;2023-01-15T13:03:00;4.40;55.30
530;DHT22;251;48.704;9.210;2023-01-15T13:05:32;4.40;53.00
530;DHT22;251;48.704;9.210;2023-01-15T13:08:05;4.50;52.80
530;DHT22;251;48.704;9.210;2023-01-15T13:10:37;4.50;53.20
530;DHT22;251;48.704;9.210;2023-01-15T13:13:14;4.60;55.00
530;DHT22;251;48.704;9.210;2023-01-15T13:15:53;4.50;53.10
530;DHT22;251;48.704;9.210;2023-01-15T13:18:25;4.50;49.90
530;DHT22;251;48.704;9.210;2023-01-15T13:20:55;4.40;51.50
530;DHT22;251;48.704;9.210;2023-01-15T13:23:38;4.40;51.90
530;DHT22;251;48.704;9.210;2023-01-15T13:26:13;4.40;51.00
530;DHT22;251;48.704;9.210;2023-01-15T13:28:53;4.50;49.90
530;DHT22;251;48.704;9.210;2023-01-15T13:31:45;4.50;51.50
530;DHT22;251;48.704;9.210;2023-01-15T13:34:18;4.40;49.30
530;DHT22;251;48.704;9.210;2023-01-15T13:36:48;4.50;50.10
530;DHT22;251;48.704;9.210;2023-01-15T13:39:19;4.40;49.60
530;DHT22;251;48.704;9.210;2023-01-15T13:41:49;4.40;50.50
530;DHT22;251;48.704;9.210;2023-01-15T13:44:38;4.40;50.30
530;DHT22;251;48.704;9.210;2023-01-15T13:47:17;4.70;49.10
530;DHT22;251;48.704;9.210;2023-01-15T13:49:48;4.60;49.40
530;DHT22;251;48.704;9.210;2023-01-15T13:52:21;4.40;46.40
530;DHT22;251;48.704;9.210;2023-01-15T13:54:51;4.40;46.80
530;DHT22;251;48.704;9.210;2023-01-15T13:57:23;4.80;46.20
530;DHT22;251;48.704;9.210;2023-01-15T13:59:52;4.60;46.40
530;DHT22;251;48.704;9.210;2023-01-15T14:02:24;4.60;45.20
530;DHT22;251;48.704;9.210;2023-01-15T14:04:51;4.40;46.00
530;DHT22;251;48.704;9.210;2023-01-15T14:07:19;4.40;45.50
530;DHT22;251;48.704;9.210;2023-01-15T14:09:48;4.40;44.60
530;DHT22;251;48.704;9.210;2023-01-15T14:12:22;4.70;45.20
530;DHT22;251;48.704;9.210;2023-01-15T14:18:15;4.70;43.80
530;DHT22;251;48.704;9.210;2023-01-15T14:20:55;4.70;43.00
530;DHT22;251;48.704;9.210;2023-01-15T14:23:46;4.70;43.70
530;DHT22;251;48.704;9.210;2023-01-15T14:26:22;4.70;42.00
530;DHT22;251;48.704;9.210;2023-01-15T14:29:00;4.70;40.20
530;DHT22;251;48.704;9.210;2023-01-15T14:31:44;4.70;42.10
530;DHT22;251;48.704;9.210;2023-01-15T14:34:20;4.70;41.20
530;DHT22;251;48.704;9.210;2023-01-15T14:36:54;4.90;40.40
530;DHT22;251;48.704;9.210;2023-01-15T14:39:35;4.60;39.60
530;DHT22;251;48.704;9.210;2023-01-15T14:42:11;4.70;40.80
530;DHT22;251;48.704;9.210;2023-01-15T14:45:03;4.70;37.40
530;DHT22;251;48.704;9.210;2023-01-15T14:47:43;4.70;39.80
530;DHT22;251;48.704;9.210;2023-01-15T14:50:36;4.80;39.50
530;DHT22;251;48.704;9.210;2023-01-15T14:53:35;4.70;39.20
530;DHT22;251;48.704;9.210;2023-01-15T14:56:11;4.70;38.80
530;DHT22;251;48.704;9.210;2023-01-15T14:58:45;4.70;38.90
530;DHT22;251;48.704;9.210;2023-01-15T15:01:20;4.90;37.20
530;DHT22;251;48.704;9.210;2023-01-15T15:03:55;4.70;38.80
530;DHT22;251;48.704;9.210;2023-01-15T15:06:22;4.70;39.20
530;DHT22;251;48.704;9.210;2023-01-15T15:08:50;4.70;37.50
530;DHT22;251;48.704;9.210;2023-01-15T15:11:23;4.70;38.10
530;DHT22;251;48.704;9.210;2023-01-15T15:14:10;4.60;39.10
530;DHT22;251;48.704;9.210;2023-01-15T15:16:42;5.10;38.50
530;DHT22;251;48.704;9.210;2023-01-15T15:19:20;4.80;37.90
530;DHT22;251;48.704;9.210;2023-01-15T15:21:48;4.70;38.80
530;DHT22;251;48.704;9.210;2023-01-15T15:24:21;4.80;39.20
530;DHT22;251;48.704;9.210;2023-01-15T15:26:49;4.90;38.40
530;DHT22;251;48.704;9.210;2023-01-15T15:29:17;4.90;38.20
530;DHT22;251;48.704;9.210;2023-01-15T15:31:47;4.70;38.90
530;DHT22;251;48.704;9.210;2023-01-15T15:34:26;4.90;38.40
530;DHT22;251;48.704;9.210;2023-01-15T15:36:54;4.80;37.70
530;DHT22;251;48.704;9.210;2023-01-15T15:39:27;4.70;36.50
530;DHT22;251;48.704;9.210;2023-01-15T15:41:57;4.70;36.80
530;DHT22;251;48.704;9.210;2023-01-15T15:44:48;4.70;36.20
530;DHT22;251;48.704;9.210;2023-01-15T15:47:37;4.70;36.20
530;DHT22;251;48.704;9.210;2023-01-15T15:50:25;4.60;36.90
530;DHT22;251;48.704;9.210;2023-01-15T15:52:52;4.70;35.10
530;DHT22;251;48.704;9.210;2023-01-15T15:55:20;4.70;35.80
530;DHT22;251;48.704;9.210;2023-01-15T15:57:50;4.60;35.90
530;DHT22;251;48.704;9.210;2023-01-15T16:00:29;4.40;35.40
530;DHT22;251;48.704;9.210;2023-01-15T16:03:03;4.70;35.60
530;DHT22;251;48.704;9.210;2023-01-15T16:05:32;4.70;36.00
530;DHT22;251;48.704;9.210;2023-01-15T16:08:07;4.70;36.70
530;DHT22;251;48.704;9.210;2023-01-15T16:10:40;4.40;35.90
530;DHT22;251;48.704;9.210;2023-01-15T16:13:13;4.70;35.20
530;DHT22;251;48.704;9.210;2023-01-15T16:15:42;4.60;34.40
530;DHT22;251;48.704;9.210;2023-01-15T16:18:17;4.50;34.80
530;DHT22;251;48.704;9.210;2023-01-15T16:20:46;4.50;35.00
530;DHT22;251;48.704;9.210;2023-01-15T16:23:19;4.50;34.40
530;DHT22;251;48.704;9.210;2023-01-15T16:25:55;4.40;34.10
530;DHT22;251;48.704;9.210;2023-01-15T16:28:25;4.50;34.70
530;DHT22;251;48.704;9.210;2023-01-15T16:30:56;4.40;33.60
530;DHT22;251;48.704;9.210;2023-01-15T16:33:23;4.40;33.90
530;DHT22;251;48.704;9.210;2023-01-15T16:35:56;4.40;34.50
530;DHT22;251;48.704;9.210;2023-01-15T16:38:24;4.30;34.60
530;DHT22;251;48.704;9.210;2023-01-15T16:40:52;4.40;33.80
530;DHT22;251;48.704;9.210;2023-01-15T16:43:21;4.30;34.60
530;DHT22;251;48.704;9.210;2023-01-15T16:46:01;4.40;34.40
530;DHT22;251;48.704;9.210;2023-01-15T16:48:31;4.30;33.60
530;DHT22;251;48.704;9.210;2023-01-15T16:51:29;4.40;32.90
530;DHT22;251;48.704;9.210;2023-01-15T16:53:56;4.40;34.40
530;DHT22;251;48.704;9.210;2023-01-15T16:56:27;4.30;34.20
530;DHT22;251;48.704;9.210;2023-01-15T16:59:15;4.40;34.20
530;DHT22;251;48.704;9.210;2023-01-15T17:01:43;4.40;33.10
530;DHT22;251;48.704;9.210;2023-01-15T17:04:18;4.40;33.10
530;DHT22;251;48.704;9.210;2023-01-15T17:06:55;4.40;33.40
530;DHT22;251;48.704;9.210;2023-01-15T17:09:23;4.30;32.30
530;DHT22;251;48.704;9.210;2023-01-15T17:11:51;4.10;33.40
530;DHT22;251;48.704;9.210;2023-01-15T17:14:21;4.40;34.20
530;DHT22;251;48.704;9.210;2023-01-15T17:16:48;4.40;34.20
530;DHT22;251;48.704;9.210;2023-01-15T17:19:15;4.30;35.20
530;DHT22;251;48.704;9.210;2023-01-15T17:21:42;4.50;35.10
530;DHT22;251;48.704;9.210;2023-01-15T17:24:13;4.40;33.90
530;DHT22;251;48.704;9.210;2023-01-15T17:26:40;4.20;33.60